Aérodrome :
LOGIN :

S'inscrire | Disclaimer

   EN    FR    IT 

 










Légende :    VFR   VFR Marginal   IFR   IFR Intensif   IFR Très Intensif
Visi : 
Plafond : 
>= 8 km
>= 3000ft
5 à 8 km
1000 à 3000 ft
1500m à 5 km
500 à 1000 ft
800 à 1500m
200 à 500 ft
< 800m
< 200 ft
Symboles :   Orages  Brouillard  Fortes neiges  Fortes précipitations  Vent > 20 kt
SIGMETs :   Divers  Orages  Givrage  Turbulence  Onde Orograph.  Cendres Volcan.







- Altitude de l'aérodrome : 675 ft
- Code IATA : RZE


EPRZ - Rzeszow-Jasionka

DERNIER METAR :
  • 210230Z VRB01KT CAVOK 16/14 Q1018

METARs EXPIRÉS :
  • 210200Z VRB01KT CAVOK 15/14 Q1018
  • 210130Z VRB01KT CAVOK 15/14 Q1018
  • 210100Z VRB01KT CAVOK 15/14 Q1018
  • 210030Z VRB01KT CAVOK 15/14 Q1018
  • 210000Z VRB01KT CAVOK 16/14 Q1019

TAF TAF EPRZ
Valide du 21 à 00h jusqu'au 22 à 00h UTC


202330Z 2100/2124 VRB02KT CAVOK
BECMG 2105/2108 21010KT
TEMPO 2110/2113 SCT050TCU
TEMPO 2113/2119 VRB20G40KT 2000 TSRAGR SCT013 BKN033CB
BECMG 2119/2122 30010KT
TEMPO 2119/2124 32020G40KT 2000 TSRA BKN013CB
PROB40
TEMPO 2119/2122 32025G50KT
Pas de NOTAMs connus pour ce terrain.



MET'MAP, la Météo Aéronautique d'un coup d'oeil ! - Copyright ORBIFLY Décembre 2007 - Disclaimer

ORBIFLY MET'MAP TEAM :

Programmation & Développement : Alexandra Zaïnal
Conception & Développement : Baudouin d'Aumeries
Co-Programmation & Développement : Marc-Olivier Méhu
Soutien technique & logistique : Manuel Goepfert

Contact : metmap@orbifly.com




SOURCES & CREDITS :

   NOAA